Hc Nadja Maria — V2AV4 — position and weather

sailwx.info

Track history (hours):
 
Tides and Currents Weather Stations Pressure Air Temp Water Temp Dewpoint Dewpoint Depression Visibility Wind Speed Wind Dir Waves Ship Positions

Hc Nadja Maria

Last reported at 2017-Jun-24 13:30 UTC. Time now 2017-Jun-28 17:44 UTC.
Position N 43°44' W 005°09'.

Length 130 m; draft 4.5 m.

Type: Cargo ship. MMSI: 304204000.

Date/timePositionNaut miles runAvg speedWind from/ knotsBaromVisibWave heightAir tempDewpointWater temp
2017-Jun-24 13:30N 43°44' W 005°09'714.1
2017-Jun-24 13:00N 43°45' W 005°19'713.9
2017-Jun-24 12:30N 43°45' W 005°28'714.1
2017-Jun-24 12:00N 43°46' W 005°38'714.5
2017-Jun-24 11:30N 43°47' W 005°48'714.1
2017-Jun-24 11:00N 43°47' W 005°58'  
2017-Jun-20 19:41N 38°43' W 027°03'0 0.0
2017-Jun-20 18:47N 38°43' W 027°03'0 0.0
2017-Jun-20 18:29N 38°43' W 027°03'0 0.0
2017-Jun-20 18:00N 38°43' W 027°03'0 0.0
2017-Jun-20 17:28N 38°43' W 027°03'0 0.0
2017-Jun-20 16:57N 38°43' W 027°03'0 0.0
2017-Jun-20 16:29N 38°43' W 027°03'0 0.0
2017-Jun-20 15:04N 38°43' W 027°03'0 0.0
2017-Jun-20 14:41N 38°43' W 027°03'0 0.0
2017-Jun-20 13:59N 38°43' W 027°03'0 0.0
2017-Jun-20 11:53N 38°43' W 027°03'0 0.0
2017-Jun-20 11:28N 38°43' W 027°03'0 0.0
2017-Jun-20 11:00N 38°43' W 027°03'0 0.0
2017-Jun-20 10:27N 38°43' W 027°03'0 0.0
2017-Jun-20 09:59N 38°43' W 027°03'0 0.0
2017-Jun-20 09:30N 38°43' W 027°03'0 0.0
2017-Jun-20 09:00N 38°43' W 027°03'0 0.0
2017-Jun-20 08:24N 38°43' W 027°03'0 0.0
2017-Jun-19 23:17N 38°43' W 027°03'0 0.0
2017-Jun-19 16:43N 38°43' W 027°03'0 0.0
2017-Jun-19 16:19N 38°43' W 027°03'0 0.0
2017-Jun-19 15:58N 38°43' W 027°03'1 0.0
2017-Jun-18 17:32N 38°43' W 027°02'0 0.2
2017-Jun-18 17:20N 38°43' W 027°02'0 0.1
2017-Jun-18 17:00N 38°43' W 027°02'0 0.2
2017-Jun-18 16:03N 38°43' W 027°02'0 0.9
2017-Jun-18 15:57N 38°43' W 027°02'5 7.1
2017-Jun-18 15:17N 38°39' W 026°59'310.2
2017-Jun-18 14:58N 38°36' W 026°58'1212.7
2017-Jun-18 14:00N 38°24' W 026°53'612.8
2017-Jun-18 13:31N 38°18' W 026°51'713.5
2017-Jun-18 13:01N 38°12' W 026°48'612.9
2017-Jun-18 12:30N 38°06' W 026°45'713.1
2017-Jun-18 12:00N 37°60' W 026°42'713.3
2017-Jun-18 11:30N 37°54' W 026°39'612.8
2017-Jun-18 11:01N 37°48' W 026°37'612.8
2017-Jun-18 10:30N 37°41' W 026°34'612.8
2017-Jun-18 10:00N 37°35' W 026°31'713.3
2017-Jun-18 09:30N 37°29' W 026°29'713.0
2017-Jun-18 09:00N 37°23' W 026°26'612.5
2017-Jun-18 08:31N 37°17' W 026°24'612.7
2017-Jun-18 08:00N 37°11' W 026°21'713.3
2017-Jun-18 07:30N 37°05' W 026°18'713.4
2017-Jun-18 07:00N 36°58' W 026°16'713.3
2017-Jun-18 06:30N 36°52' W 026°13'613.0
2017-Jun-18 06:00N 36°46' W 026°10'613.0
2017-Jun-18 05:30N 36°40' W 026°08'712.9
2017-Jun-18 05:00N 36°34' W 026°05'612.8
2017-Jun-18 04:30N 36°28' W 026°02'612.8
2017-Jun-18 04:00N 36°22' W 025°59'613.2
2017-Jun-18 03:30N 36°15' W 025°57'713.4
2017-Jun-18 03:00N 36°09' W 025°55'713.1
2017-Jun-18 02:30N 36°03' W 025°52'713.0
2017-Jun-18 02:00N 35°56' W 025°49'1012.8
2017-Jun-18 01:11N 35°47' W 025°45'3312.7
2017-Jun-17 22:38N 35°16' W 025°32'2812.1
2017-Jun-17 20:21N 34°50' W 025°21'  
Track history (hours):
 
Tides and Currents Weather Stations Pressure Air Temp Water Temp Dewpoint Dewpoint Depression Visibility Wind Speed Wind Dir Waves Ship Positions

Hc Nadja Maria

Last reported at 2017-Jun-24 13:30 UTC. Time now 2017-Jun-28 17:44 UTC.
Position N 43°44' W 005°09'.

Length 130 m; draft 4.5 m.

Type: Cargo ship. MMSI: 304204000.

Date/timePositionNaut miles runAvg speedWind from/ knotsBaromVisibWave heightAir tempDewpointWater temp
2017-Jun-24 13:30N 43°44' W 005°09'714.1
2017-Jun-24 13:00N 43°45' W 005°19'713.9
2017-Jun-24 12:30N 43°45' W 005°28'714.1
2017-Jun-24 12:00N 43°46' W 005°38'714.5
2017-Jun-24 11:30N 43°47' W 005°48'714.1
2017-Jun-24 11:00N 43°47' W 005°58'  
2017-Jun-20 19:41N 38°43' W 027°03'0 0.0
2017-Jun-20 18:47N 38°43' W 027°03'0 0.0
2017-Jun-20 18:29N 38°43' W 027°03'0 0.0
2017-Jun-20 18:00N 38°43' W 027°03'0 0.0
2017-Jun-20 17:28N 38°43' W 027°03'0 0.0
2017-Jun-20 16:57N 38°43' W 027°03'0 0.0
2017-Jun-20 16:29N 38°43' W 027°03'0 0.0
2017-Jun-20 15:04N 38°43' W 027°03'0 0.0
2017-Jun-20 14:41N 38°43' W 027°03'0 0.0
2017-Jun-20 13:59N 38°43' W 027°03'0 0.0
2017-Jun-20 11:53N 38°43' W 027°03'0 0.0
2017-Jun-20 11:28N 38°43' W 027°03'0 0.0
2017-Jun-20 11:00N 38°43' W 027°03'0 0.0
2017-Jun-20 10:27N 38°43' W 027°03'0 0.0
2017-Jun-20 09:59N 38°43' W 027°03'0 0.0
2017-Jun-20 09:30N 38°43' W 027°03'0 0.0
2017-Jun-20 09:00N 38°43' W 027°03'0 0.0
2017-Jun-20 08:24N 38°43' W 027°03'0 0.0
2017-Jun-19 23:17N 38°43' W 027°03'0 0.0
2017-Jun-19 16:43N 38°43' W 027°03'0 0.0
2017-Jun-19 16:19N 38°43' W 027°03'0 0.0
2017-Jun-19 15:58N 38°43' W 027°03'1 0.0
2017-Jun-18 17:32N 38°43' W 027°02'0 0.2
2017-Jun-18 17:20N 38°43' W 027°02'0 0.1
2017-Jun-18 17:00N 38°43' W 027°02'0 0.2
2017-Jun-18 16:03N 38°43' W 027°02'0 0.9
2017-Jun-18 15:57N 38°43' W 027°02'5 7.1
2017-Jun-18 15:17N 38°39' W 026°59'310.2
2017-Jun-18 14:58N 38°36' W 026°58'1212.7
2017-Jun-18 14:00N 38°24' W 026°53'612.8
2017-Jun-18 13:31N 38°18' W 026°51'713.5
2017-Jun-18 13:01N 38°12' W 026°48'612.9
2017-Jun-18 12:30N 38°06' W 026°45'713.1
2017-Jun-18 12:00N 37°60' W 026°42'713.3
2017-Jun-18 11:30N 37°54' W 026°39'612.8
2017-Jun-18 11:01N 37°48' W 026°37'612.8
2017-Jun-18 10:30N 37°41' W 026°34'612.8
2017-Jun-18 10:00N 37°35' W 026°31'713.3
2017-Jun-18 09:30N 37°29' W 026°29'713.0
2017-Jun-18 09:00N 37°23' W 026°26'612.5
2017-Jun-18 08:31N 37°17' W 026°24'612.7
2017-Jun-18 08:00N 37°11' W 026°21'713.3
2017-Jun-18 07:30N 37°05' W 026°18'713.4
2017-Jun-18 07:00N 36°58' W 026°16'713.3
2017-Jun-18 06:30N 36°52' W 026°13'613.0
2017-Jun-18 06:00N 36°46' W 026°10'613.0
2017-Jun-18 05:30N 36°40' W 026°08'712.9
2017-Jun-18 05:00N 36°34' W 026°05'612.8
2017-Jun-18 04:30N 36°28' W 026°02'612.8
2017-Jun-18 04:00N 36°22' W 025°59'613.2
2017-Jun-18 03:30N 36°15' W 025°57'713.4
2017-Jun-18 03:00N 36°09' W 025°55'713.1
2017-Jun-18 02:30N 36°03' W 025°52'713.0
2017-Jun-18 02:00N 35°56' W 025°49'1012.8
2017-Jun-18 01:11N 35°47' W 025°45'3312.7
2017-Jun-17 22:38N 35°16' W 025°32'2812.1
2017-Jun-17 20:21N 34°50' W 025°21'  

Dump ship's entire track history